sensor_id;sensor_type;location;lat;lon;timestamp;temperature;humidity
45837;DHT22;31548;51.420;-0.040;2022-08-18T00:02:20;19.80;99.90
45837;DHT22;31548;51.420;-0.040;2022-08-18T00:04:56;19.80;99.90
45837;DHT22;31548;51.420;-0.040;2022-08-18T00:07:28;19.80;99.90
45837;DHT22;31548;51.420;-0.040;2022-08-18T00:09:56;19.80;99.90
45837;DHT22;31548;51.420;-0.040;2022-08-18T00:12:36;19.80;99.90
45837;DHT22;31548;51.420;-0.040;2022-08-18T00:15:07;19.80;99.90
45837;DHT22;31548;51.420;-0.040;2022-08-18T00:17:35;19.80;99.90
45837;DHT22;31548;51.420;-0.040;2022-08-18T00:20:07;19.80;99.90
45837;DHT22;31548;51.420;-0.040;2022-08-18T00:22:36;19.80;99.90
45837;DHT22;31548;51.420;-0.040;2022-08-18T00:25:08;19.90;99.90
45837;DHT22;31548;51.420;-0.040;2022-08-18T00:27:39;19.90;99.90
45837;DHT22;31548;51.420;-0.040;2022-08-18T00:30:11;19.90;99.90
45837;DHT22;31548;51.420;-0.040;2022-08-18T00:32:47;19.90;99.90
45837;DHT22;31548;51.420;-0.040;2022-08-18T00:35:20;19.90;99.90
45837;DHT22;31548;51.420;-0.040;2022-08-18T00:37:49;19.90;99.90
45837;DHT22;31548;51.420;-0.040;2022-08-18T00:40:21;19.90;99.90
45837;DHT22;31548;51.420;-0.040;2022-08-18T00:42:54;19.90;99.90
45837;DHT22;31548;51.420;-0.040;2022-08-18T00:45:25;19.80;99.90
45837;DHT22;31548;51.420;-0.040;2022-08-18T00:47:54;19.80;99.90
45837;DHT22;31548;51.420;-0.040;2022-08-18T00:50:47;19.90;99.90
45837;DHT22;31548;51.420;-0.040;2022-08-18T00:53:37;19.90;99.90
45837;DHT22;31548;51.420;-0.040;2022-08-18T00:56:14;19.90;99.90
45837;DHT22;31548;51.420;-0.040;2022-08-18T00:58:43;19.80;99.90
45837;DHT22;31548;51.420;-0.040;2022-08-18T01:01:12;19.80;99.90
45837;DHT22;31548;51.420;-0.040;2022-08-18T01:03:42;19.90;99.90
45837;DHT22;31548;51.420;-0.040;2022-08-18T01:06:15;19.80;99.90
45837;DHT22;31548;51.420;-0.040;2022-08-18T01:08:44;19.90;99.90
45837;DHT22;31548;51.420;-0.040;2022-08-18T01:11:12;19.90;99.90
45837;DHT22;31548;51.420;-0.040;2022-08-18T01:13:41;19.90;99.90
45837;DHT22;31548;51.420;-0.040;2022-08-18T01:16:09;19.90;99.90
45837;DHT22;31548;51.420;-0.040;2022-08-18T01:18:56;19.90;99.90
45837;DHT22;31548;51.420;-0.040;2022-08-18T01:21:47;19.90;99.90
45837;DHT22;31548;51.420;-0.040;2022-08-18T01:24:21;19.90;99.90
45837;DHT22;31548;51.420;-0.040;2022-08-18T01:27:10;19.80;99.90
45837;DHT22;31548;51.420;-0.040;2022-08-18T01:29:39;19.80;99.90
45837;DHT22;31548;51.420;-0.040;2022-08-18T01:32:10;19.80;99.90
45837;DHT22;31548;51.420;-0.040;2022-08-18T01:34:39;19.80;99.90
45837;DHT22;31548;51.420;-0.040;2022-08-18T01:37:06;19.80;99.90
45837;DHT22;31548;51.420;-0.040;2022-08-18T01:39:36;19.80;99.90
45837;DHT22;31548;51.420;-0.040;2022-08-18T01:42:25;19.80;99.90
45837;DHT22;31548;51.420;-0.040;2022-08-18T01:44:52;19.80;99.90
45837;DHT22;31548;51.420;-0.040;2022-08-18T01:47:21;19.70;99.90
45837;DHT22;31548;51.420;-0.040;2022-08-18T01:49:49;19.70;99.90
45837;DHT22;31548;51.420;-0.040;2022-08-18T01:52:20;19.70;99.90
45837;DHT22;31548;51.420;-0.040;2022-08-18T01:54:49;19.70;99.90
45837;DHT22;31548;51.420;-0.040;2022-08-18T01:57:20;19.70;99.90
45837;DHT22;31548;51.420;-0.040;2022-08-18T01:59:49;19.70;99.90
45837;DHT22;31548;51.420;-0.040;2022-08-18T02:02:25;19.60;99.90
45837;DHT22;31548;51.420;-0.040;2022-08-18T02:04:58;19.60;99.90
45837;DHT22;31548;51.420;-0.040;2022-08-18T02:07:28;19.60;99.90
45837;DHT22;31548;51.420;-0.040;2022-08-18T02:10:05;19.70;99.90
45837;DHT22;31548;51.420;-0.040;2022-08-18T02:12:39;19.70;99.90
45837;DHT22;31548;51.420;-0.040;2022-08-18T02:15:08;19.70;99.90
45837;DHT22;31548;51.420;-0.040;2022-08-18T02:17:42;19.70;99.90
45837;DHT22;31548;51.420;-0.040;2022-08-18T02:20:14;19.70;99.90
45837;DHT22;31548;51.420;-0.040;2022-08-18T02:22:43;19.70;99.90
45837;DHT22;31548;51.420;-0.040;2022-08-18T02:25:13;19.70;99.90
45837;DHT22;31548;51.420;-0.040;2022-08-18T02:27:41;19.70;99.90
45837;DHT22;31548;51.420;-0.040;2022-08-18T02:30:13;19.70;99.90
45837;DHT22;31548;51.420;-0.040;2022-08-18T02:32:41;19.60;99.90
45837;DHT22;31548;51.420;-0.040;2022-08-18T02:35:10;19.70;99.90
45837;DHT22;31548;51.420;-0.040;2022-08-18T02:37:40;19.70;99.90
45837;DHT22;31548;51.420;-0.040;2022-08-18T02:40:09;19.60;99.90
45837;DHT22;31548;51.420;-0.040;2022-08-18T02:42:43;19.70;99.90
45837;DHT22;31548;51.420;-0.040;2022-08-18T02:45:12;19.70;99.90
45837;DHT22;31548;51.420;-0.040;2022-08-18T02:47:40;19.70;99.90
45837;DHT22;31548;51.420;-0.040;2022-08-18T02:50:12;19.70;99.90
45837;DHT22;31548;51.420;-0.040;2022-08-18T02:52:40;19.70;99.90
45837;DHT22;31548;51.420;-0.040;2022-08-18T02:55:08;19.70;99.90
45837;DHT22;31548;51.420;-0.040;2022-08-18T02:57:43;19.70;99.90
45837;DHT22;31548;51.420;-0.040;2022-08-18T03:00:13;19.70;99.90
45837;DHT22;31548;51.420;-0.040;2022-08-18T03:02:49;19.70;99.90
45837;DHT22;31548;51.420;-0.040;2022-08-18T03:05:18;19.70;99.90
45837;DHT22;31548;51.420;-0.040;2022-08-18T03:07:46;19.80;99.90
45837;DHT22;31548;51.420;-0.040;2022-08-18T03:10:14;19.70;99.90
45837;DHT22;31548;51.420;-0.040;2022-08-18T03:13:02;19.80;99.90
45837;DHT22;31548;51.420;-0.040;2022-08-18T03:15:35;19.80;99.90
45837;DHT22;31548;51.420;-0.040;2022-08-18T03:18:03;19.80;99.90
45837;DHT22;31548;51.420;-0.040;2022-08-18T03:20:31;19.80;99.90
45837;DHT22;31548;51.420;-0.040;2022-08-18T03:23:02;19.80;99.90
45837;DHT22;31548;51.420;-0.040;2022-08-18T03:25:43;19.80;99.90
45837;DHT22;31548;51.420;-0.040;2022-08-18T03:28:11;19.80;99.90
45837;DHT22;31548;51.420;-0.040;2022-08-18T03:30:39;19.80;99.90
45837;DHT22;31548;51.420;-0.040;2022-08-18T03:33:07;19.80;99.90
45837;DHT22;31548;51.420;-0.040;2022-08-18T03:35:35;19.80;99.90
45837;DHT22;31548;51.420;-0.040;2022-08-18T03:38:04;19.80;99.90
45837;DHT22;31548;51.420;-0.040;2022-08-18T03:40:32;19.80;99.90
45837;DHT22;31548;51.420;-0.040;2022-08-18T03:43:04;19.80;99.90
45837;DHT22;31548;51.420;-0.040;2022-08-18T03:45:55;19.70;99.90
45837;DHT22;31548;51.420;-0.040;2022-08-18T03:48:26;19.70;99.90
45837;DHT22;31548;51.420;-0.040;2022-08-18T03:50:54;19.70;99.90
45837;DHT22;31548;51.420;-0.040;2022-08-18T03:53:22;19.70;99.90
45837;DHT22;31548;51.420;-0.040;2022-08-18T03:55:50;19.70;99.90
45837;DHT22;31548;51.420;-0.040;2022-08-18T03:58:17;19.70;99.90
45837;DHT22;31548;51.420;-0.040;2022-08-18T04:00:45;19.60;99.90
45837;DHT22;31548;51.420;-0.040;2022-08-18T04:03:13;19.60;99.90
45837;DHT22;31548;51.420;-0.040;2022-08-18T04:05:41;19.60;99.90
45837;DHT22;31548;51.420;-0.040;2022-08-18T04:08:09;19.50;99.90
45837;DHT22;31548;51.420;-0.040;2022-08-18T04:10:37;19.50;99.90
45837;DHT22;31548;51.420;-0.040;2022-08-18T04:13:05;19.50;99.90
45837;DHT22;31548;51.420;-0.040;2022-08-18T04:15:33;19.50;99.90
45837;DHT22;31548;51.420;-0.040;2022-08-18T04:18:01;19.50;99.90
45837;DHT22;31548;51.420;-0.040;2022-08-18T04:20:31;19.50;99.90
45837;DHT22;31548;51.420;-0.040;2022-08-18T04:23:00;19.50;99.90
45837;DHT22;31548;51.420;-0.040;2022-08-18T04:25:28;19.50;99.90
45837;DHT22;31548;51.420;-0.040;2022-08-18T04:28:00;19.50;99.90
45837;DHT22;31548;51.420;-0.040;2022-08-18T04:30:29;19.50;99.90
45837;DHT22;31548;51.420;-0.040;2022-08-18T04:32:59;19.50;99.90
45837;DHT22;31548;51.420;-0.040;2022-08-18T04:35:27;19.60;99.90
45837;DHT22;31548;51.420;-0.040;2022-08-18T04:37:56;19.50;99.90
45837;DHT22;31548;51.420;-0.040;2022-08-18T04:40:24;19.50;99.90
45837;DHT22;31548;51.420;-0.040;2022-08-18T04:42:53;19.60;99.90
45837;DHT22;31548;51.420;-0.040;2022-08-18T04:45:21;19.60;99.90
45837;DHT22;31548;51.420;-0.040;2022-08-18T04:47:49;19.50;99.90
45837;DHT22;31548;51.420;-0.040;2022-08-18T04:50:18;19.50;99.90
45837;DHT22;31548;51.420;-0.040;2022-08-18T04:52:46;19.50;99.90
45837;DHT22;31548;51.420;-0.040;2022-08-18T04:55:33;19.50;99.90
45837;DHT22;31548;51.420;-0.040;2022-08-18T04:58:00;19.60;99.90
45837;DHT22;31548;51.420;-0.040;2022-08-18T05:00:28;19.60;99.90
45837;DHT22;31548;51.420;-0.040;2022-08-18T05:02:56;19.60;99.90
45837;DHT22;31548;51.420;-0.040;2022-08-18T05:05:24;19.50;99.90
45837;DHT22;31548;51.420;-0.040;2022-08-18T05:07:53;19.60;99.90
45837;DHT22;31548;51.420;-0.040;2022-08-18T05:10:21;19.50;99.90
45837;DHT22;31548;51.420;-0.040;2022-08-18T05:12:49;19.60;99.90
45837;DHT22;31548;51.420;-0.040;2022-08-18T05:15:17;19.60;99.90
45837;DHT22;31548;51.420;-0.040;2022-08-18T05:17:45;19.60;99.90
45837;DHT22;31548;51.420;-0.040;2022-08-18T05:20:17;19.60;99.90
45837;DHT22;31548;51.420;-0.040;2022-08-18T05:22:45;19.60;99.90
45837;DHT22;31548;51.420;-0.040;2022-08-18T05:25:13;19.60;99.90
45837;DHT22;31548;51.420;-0.040;2022-08-18T05:27:42;19.60;99.90
45837;DHT22;31548;51.420;-0.040;2022-08-18T05:30:11;19.60;99.90
45837;DHT22;31548;51.420;-0.040;2022-08-18T05:32:44;19.50;99.90
45837;DHT22;31548;51.420;-0.040;2022-08-18T05:35:24;19.60;99.90
45837;DHT22;31548;51.420;-0.040;2022-08-18T05:38:15;19.60;99.90
45837;DHT22;31548;51.420;-0.040;2022-08-18T05:40:59;19.60;99.90
45837;DHT22;31548;51.420;-0.040;2022-08-18T05:43:28;19.60;99.90
45837;DHT22;31548;51.420;-0.040;2022-08-18T05:45:57;19.60;99.90
45837;DHT22;31548;51.420;-0.040;2022-08-18T05:48:26;19.60;99.90
45837;DHT22;31548;51.420;-0.040;2022-08-18T05:50:55;19.60;99.90
45837;DHT22;31548;51.420;-0.040;2022-08-18T05:53:24;19.60;99.90
45837;DHT22;31548;51.420;-0.040;2022-08-18T05:56:12;19.70;99.90
45837;DHT22;31548;51.420;-0.040;2022-08-18T05:59:00;19.70;99.90
45837;DHT22;31548;51.420;-0.040;2022-08-18T06:01:39;19.60;99.90
45837;DHT22;31548;51.420;-0.040;2022-08-18T06:04:21;19.70;99.90
45837;DHT22;31548;51.420;-0.040;2022-08-18T06:06:51;19.70;99.90
45837;DHT22;31548;51.420;-0.040;2022-08-18T06:09:22;19.70;99.90
45837;DHT22;31548;51.420;-0.040;2022-08-18T06:11:53;19.70;99.90
45837;DHT22;31548;51.420;-0.040;2022-08-18T06:14:24;19.70;99.90
45837;DHT22;31548;51.420;-0.040;2022-08-18T06:17:15;19.80;99.90
45837;DHT22;31548;51.420;-0.040;2022-08-18T06:20:14;19.80;99.90
45837;DHT22;31548;51.420;-0.040;2022-08-18T06:22:57;19.80;99.90
45837;DHT22;31548;51.420;-0.040;2022-08-18T06:26:02;19.90;99.90
45837;DHT22;31548;51.420;-0.040;2022-08-18T06:37:30;20.00;99.90
45837;DHT22;31548;51.420;-0.040;2022-08-18T06:39:59;20.00;99.90
45837;DHT22;31548;51.420;-0.040;2022-08-18T06:42:28;20.00;99.90
45837;DHT22;31548;51.420;-0.040;2022-08-18T06:45:04;20.00;99.90
45837;DHT22;31548;51.420;-0.040;2022-08-18T06:47:51;20.10;99.90
45837;DHT22;31548;51.420;-0.040;2022-08-18T06:53:10;20.10;99.90
45837;DHT22;31548;51.420;-0.040;2022-08-18T06:55:54;20.20;99.90
45837;DHT22;31548;51.420;-0.040;2022-08-18T06:58:28;20.20;99.90
45837;DHT22;31548;51.420;-0.040;2022-08-18T07:01:03;20.20;99.90
45837;DHT22;31548;51.420;-0.040;2022-08-18T07:08:50;20.20;99.90
45837;DHT22;31548;51.420;-0.040;2022-08-18T07:11:26;20.20;99.90
45837;DHT22;31548;51.420;-0.040;2022-08-18T07:13:57;20.30;99.90
45837;DHT22;31548;51.420;-0.040;2022-08-18T07:16:42;20.30;99.90
45837;DHT22;31548;51.420;-0.040;2022-08-18T07:19:30;20.40;99.90
45837;DHT22;31548;51.420;-0.040;2022-08-18T07:22:06;20.50;99.90
45837;DHT22;31548;51.420;-0.040;2022-08-18T07:24:46;20.60;99.90
45837;DHT22;31548;51.420;-0.040;2022-08-18T07:30:24;20.70;99.90
45837;DHT22;31548;51.420;-0.040;2022-08-18T07:35:52;20.90;99.90
45837;DHT22;31548;51.420;-0.040;2022-08-18T07:41:19;20.90;99.90
45837;DHT22;31548;51.420;-0.040;2022-08-18T07:46:26;20.90;99.90
45837;DHT22;31548;51.420;-0.040;2022-08-18T07:48:56;20.80;99.90
45837;DHT22;31548;51.420;-0.040;2022-08-18T07:52:07;20.80;99.90
45837;DHT22;31548;51.420;-0.040;2022-08-18T07:57:47;20.90;99.90
45837;DHT22;31548;51.420;-0.040;2022-08-18T08:06:38;21.00;99.90
45837;DHT22;31548;51.420;-0.040;2022-08-18T08:12:24;21.20;99.90
45837;DHT22;31548;51.420;-0.040;2022-08-18T08:15:23;21.40;99.90
45837;DHT22;31548;51.420;-0.040;2022-08-18T08:20:42;21.60;99.90
45837;DHT22;31548;51.420;-0.040;2022-08-18T08:28:57;22.00;99.90
45837;DHT22;31548;51.420;-0.040;2022-08-18T08:31:49;22.00;99.90
45837;DHT22;31548;51.420;-0.040;2022-08-18T08:37:00;22.20;99.90
45837;DHT22;31548;51.420;-0.040;2022-08-18T08:39:56;22.30;99.90
45837;DHT22;31548;51.420;-0.040;2022-08-18T08:42:53;22.40;99.90
45837;DHT22;31548;51.420;-0.040;2022-08-18T08:45:33;22.40;99.90
45837;DHT22;31548;51.420;-0.040;2022-08-18T08:48:22;22.40;99.90
45837;DHT22;31548;51.420;-0.040;2022-08-18T08:53:31;22.60;99.90
45837;DHT22;31548;51.420;-0.040;2022-08-18T08:56:05;22.70;99.90
45837;DHT22;31548;51.420;-0.040;2022-08-18T08:58:46;22.80;99.90
45837;DHT22;31548;51.420;-0.040;2022-08-18T09:01:42;22.90;99.90
45837;DHT22;31548;51.420;-0.040;2022-08-18T09:09:57;23.40;99.90
45837;DHT22;31548;51.420;-0.040;2022-08-18T09:15:19;23.00;99.90
45837;DHT22;31548;51.420;-0.040;2022-08-18T09:21:03;22.60;99.90
45837;DHT22;31548;51.420;-0.040;2022-08-18T09:23:39;22.40;99.90
45837;DHT22;31548;51.420;-0.040;2022-08-18T09:26:39;22.30;99.90
45837;DHT22;31548;51.420;-0.040;2022-08-18T09:29:18;22.20;99.90
45837;DHT22;31548;51.420;-0.040;2022-08-18T09:35:11;22.40;99.90
45837;DHT22;31548;51.420;-0.040;2022-08-18T09:38:21;22.40;99.90
45837;DHT22;31548;51.420;-0.040;2022-08-18T09:41:11;22.40;99.90
45837;DHT22;31548;51.420;-0.040;2022-08-18T09:46:55;22.40;99.90
45837;DHT22;31548;51.420;-0.040;2022-08-18T09:52:00;22.60;99.90
45837;DHT22;31548;51.420;-0.040;2022-08-18T09:57:32;22.80;99.90
45837;DHT22;31548;51.420;-0.040;2022-08-18T10:05:29;23.20;99.90
45837;DHT22;31548;51.420;-0.040;2022-08-18T10:11:13;23.10;99.90
45837;DHT22;31548;51.420;-0.040;2022-08-18T10:16:53;23.10;99.90
45837;DHT22;31548;51.420;-0.040;2022-08-18T10:22:53;23.00;99.90
45837;DHT22;31548;51.420;-0.040;2022-08-18T10:25:43;23.00;99.90
45837;DHT22;31548;51.420;-0.040;2022-08-18T10:28:53;23.00;99.90
45837;DHT22;31548;51.420;-0.040;2022-08-18T10:31:20;22.90;99.90
45837;DHT22;31548;51.420;-0.040;2022-08-18T10:36:56;23.10;99.90
45837;DHT22;31548;51.420;-0.040;2022-08-18T10:42:39;23.20;99.90
45837;DHT22;31548;51.420;-0.040;2022-08-18T10:48:08;23.60;99.90
45837;DHT22;31548;51.420;-0.040;2022-08-18T10:50:52;23.50;99.90
45837;DHT22;31548;51.420;-0.040;2022-08-18T11:04:46;23.90;99.90
45837;DHT22;31548;51.420;-0.040;2022-08-18T11:07:30;23.90;99.90
45837;DHT22;31548;51.420;-0.040;2022-08-18T11:10:15;24.10;99.90
45837;DHT22;31548;51.420;-0.040;2022-08-18T11:13:07;24.50;99.90
45837;DHT22;31548;51.420;-0.040;2022-08-18T11:24:25;25.30;99.90
45837;DHT22;31548;51.420;-0.040;2022-08-18T11:26:56;25.40;99.90
45837;DHT22;31548;51.420;-0.040;2022-08-18T11:29:39;25.40;99.90
45837;DHT22;31548;51.420;-0.040;2022-08-18T11:34:58;25.00;99.90
45837;DHT22;31548;51.420;-0.040;2022-08-18T11:45:52;24.30;99.90
45837;DHT22;31548;51.420;-0.040;2022-08-18T11:48:37;24.30;99.90
45837;DHT22;31548;51.420;-0.040;2022-08-18T11:51:30;24.40;99.90
45837;DHT22;31548;51.420;-0.040;2022-08-18T11:54:18;24.70;99.90
45837;DHT22;31548;51.420;-0.040;2022-08-18T11:56:50;25.10;99.90
45837;DHT22;31548;51.420;-0.040;2022-08-18T12:02:17;25.40;99.70
45837;DHT22;31548;51.420;-0.040;2022-08-18T12:04:50;25.40;99.60
45837;DHT22;31548;51.420;-0.040;2022-08-18T12:07:32;25.40;99.90
45837;DHT22;31548;51.420;-0.040;2022-08-18T12:10:15;25.70;99.80
45837;DHT22;31548;51.420;-0.040;2022-08-18T12:12:53;25.80;98.90
45837;DHT22;31548;51.420;-0.040;2022-08-18T12:15:29;25.70;99.00
45837;DHT22;31548;51.420;-0.040;2022-08-18T12:18:14;25.80;98.50
45837;DHT22;31548;51.420;-0.040;2022-08-18T12:20:56;26.10;98.60
45837;DHT22;31548;51.420;-0.040;2022-08-18T12:23:25;25.90;98.50
45837;DHT22;31548;51.420;-0.040;2022-08-18T12:25:53;25.70;99.00
45837;DHT22;31548;51.420;-0.040;2022-08-18T12:28:20;26.10;99.20
45837;DHT22;31548;51.420;-0.040;2022-08-18T12:30:54;26.40;98.90
45837;DHT22;31548;51.420;-0.040;2022-08-18T12:33:41;26.70;98.30
45837;DHT22;31548;51.420;-0.040;2022-08-18T12:36:27;26.50;98.00
45837;DHT22;31548;51.420;-0.040;2022-08-18T12:38:55;26.50;98.70
45837;DHT22;31548;51.420;-0.040;2022-08-18T12:41:23;26.90;99.20
45837;DHT22;31548;51.420;-0.040;2022-08-18T12:43:51;27.20;96.80
45837;DHT22;31548;51.420;-0.040;2022-08-18T12:46:25;27.00;96.70
45837;DHT22;31548;51.420;-0.040;2022-08-18T12:48:53;26.80;96.60
45837;DHT22;31548;51.420;-0.040;2022-08-18T12:51:22;26.80;96.80
45837;DHT22;31548;51.420;-0.040;2022-08-18T12:53:56;27.10;97.30
45837;DHT22;31548;51.420;-0.040;2022-08-18T12:56:28;27.00;97.10
45837;DHT22;31548;51.420;-0.040;2022-08-18T12:58:59;27.30;96.80
45837;DHT22;31548;51.420;-0.040;2022-08-18T13:01:31;27.20;97.00
45837;DHT22;31548;51.420;-0.040;2022-08-18T13:03:58;27.40;97.20
45837;DHT22;31548;51.420;-0.040;2022-08-18T13:06:47;27.30;97.10
45837;DHT22;31548;51.420;-0.040;2022-08-18T13:09:32;27.10;96.00
45837;DHT22;31548;51.420;-0.040;2022-08-18T13:12:19;27.20;97.30
45837;DHT22;31548;51.420;-0.040;2022-08-18T13:14:47;26.90;96.40
45837;DHT22;31548;51.420;-0.040;2022-08-18T13:17:17;26.60;96.30
45837;DHT22;31548;51.420;-0.040;2022-08-18T13:20:05;26.60;96.50
45837;DHT22;31548;51.420;-0.040;2022-08-18T13:22:35;26.60;96.60
45837;DHT22;31548;51.420;-0.040;2022-08-18T13:25:04;26.50;96.50
45837;DHT22;31548;51.420;-0.040;2022-08-18T13:27:35;26.30;97.00
45837;DHT22;31548;51.420;-0.040;2022-08-18T13:30:09;26.40;97.70
45837;DHT22;31548;51.420;-0.040;2022-08-18T13:32:56;26.70;96.80
45837;DHT22;31548;51.420;-0.040;2022-08-18T13:35:32;27.00;95.50
45837;DHT22;31548;51.420;-0.040;2022-08-18T13:38:16;27.50;95.80
45837;DHT22;31548;51.420;-0.040;2022-08-18T13:40:55;27.50;94.60
45837;DHT22;31548;51.420;-0.040;2022-08-18T13:43:36;27.70;95.70
45837;DHT22;31548;51.420;-0.040;2022-08-18T13:46:06;27.70;94.30
45837;DHT22;31548;51.420;-0.040;2022-08-18T13:48:36;28.20;94.40
45837;DHT22;31548;51.420;-0.040;2022-08-18T13:51:08;28.40;93.80
45837;DHT22;31548;51.420;-0.040;2022-08-18T13:53:38;28.70;93.50
45837;DHT22;31548;51.420;-0.040;2022-08-18T13:56:17;28.40;93.90
45837;DHT22;31548;51.420;-0.040;2022-08-18T13:58:45;28.20;93.50
45837;DHT22;31548;51.420;-0.040;2022-08-18T14:01:19;28.40;93.10
45837;DHT22;31548;51.420;-0.040;2022-08-18T14:04:07;28.40;92.80
45837;DHT22;31548;51.420;-0.040;2022-08-18T14:06:41;28.90;93.20
45837;DHT22;31548;51.420;-0.040;2022-08-18T14:09:22;28.70;92.00
45837;DHT22;31548;51.420;-0.040;2022-08-18T14:12:05;28.70;92.80
45837;DHT22;31548;51.420;-0.040;2022-08-18T14:14:53;28.60;92.90
45837;DHT22;31548;51.420;-0.040;2022-08-18T14:17:23;28.50;93.50
45837;DHT22;31548;51.420;-0.040;2022-08-18T14:19:52;28.60;93.50
45837;DHT22;31548;51.420;-0.040;2022-08-18T14:22:49;28.70;93.10
45837;DHT22;31548;51.420;-0.040;2022-08-18T14:25:36;28.90;92.70
45837;DHT22;31548;51.420;-0.040;2022-08-18T14:28:22;28.80;93.20
45837;DHT22;31548;51.420;-0.040;2022-08-18T14:30:52;28.50;93.00
45837;DHT22;31548;51.420;-0.040;2022-08-18T14:33:23;28.40;93.90
45837;DHT22;31548;51.420;-0.040;2022-08-18T14:36:11;27.80;94.40
45837;DHT22;31548;51.420;-0.040;2022-08-18T14:38:40;28.10;93.50
45837;DHT22;31548;51.420;-0.040;2022-08-18T14:41:11;28.30;93.20
45837;DHT22;31548;51.420;-0.040;2022-08-18T14:43:39;28.40;94.60
45837;DHT22;31548;51.420;-0.040;2022-08-18T14:46:27;28.00;93.10
45837;DHT22;31548;51.420;-0.040;2022-08-18T14:48:59;28.00;93.90
45837;DHT22;31548;51.420;-0.040;2022-08-18T14:51:31;28.00;94.00
45837;DHT22;31548;51.420;-0.040;2022-08-18T14:54:00;28.70;93.20
45837;DHT22;31548;51.420;-0.040;2022-08-18T14:56:28;28.30;93.20
45837;DHT22;31548;51.420;-0.040;2022-08-18T14:58:59;28.20;94.60
45837;DHT22;31548;51.420;-0.040;2022-08-18T15:01:27;28.10;93.40
45837;DHT22;31548;51.420;-0.040;2022-08-18T15:04:01;27.90;93.30
45837;DHT22;31548;51.420;-0.040;2022-08-18T15:06:49;28.10;93.00
45837;DHT22;31548;51.420;-0.040;2022-08-18T15:09:26;28.20;92.90
45837;DHT22;31548;51.420;-0.040;2022-08-18T15:11:57;28.90;93.10
45837;DHT22;31548;51.420;-0.040;2022-08-18T15:14:26;29.10;92.40
45837;DHT22;31548;51.420;-0.040;2022-08-18T15:17:01;29.20;91.80
45837;DHT22;31548;51.420;-0.040;2022-08-18T15:19:39;28.70;91.70
45837;DHT22;31548;51.420;-0.040;2022-08-18T15:22:27;28.80;92.20
45837;DHT22;31548;51.420;-0.040;2022-08-18T15:25:14;28.90;92.00
45837;DHT22;31548;51.420;-0.040;2022-08-18T15:28:00;29.70;94.00
45837;DHT22;31548;51.420;-0.040;2022-08-18T15:30:28;29.90;91.40
45837;DHT22;31548;51.420;-0.040;2022-08-18T15:32:55;30.20;91.40
45837;DHT22;31548;51.420;-0.040;2022-08-18T15:35:30;30.40;93.70
45837;DHT22;31548;51.420;-0.040;2022-08-18T15:37:57;30.60;91.10
45837;DHT22;31548;51.420;-0.040;2022-08-18T15:40:31;29.90;90.80
45837;DHT22;31548;51.420;-0.040;2022-08-18T15:43:08;29.40;90.60
45837;DHT22;31548;51.420;-0.040;2022-08-18T15:45:40;28.90;92.80
45837;DHT22;31548;51.420;-0.040;2022-08-18T15:48:25;29.30;94.10
45837;DHT22;31548;51.420;-0.040;2022-08-18T15:50:53;29.50;90.70
45837;DHT22;31548;51.420;-0.040;2022-08-18T15:53:23;29.30;90.70
45837;DHT22;31548;51.420;-0.040;2022-08-18T15:55:56;29.30;91.00
45837;DHT22;31548;51.420;-0.040;2022-08-18T15:58:30;29.00;90.60
45837;DHT22;31548;51.420;-0.040;2022-08-18T16:00:57;28.30;91.00
45837;DHT22;31548;51.420;-0.040;2022-08-18T16:03:26;28.20;91.50
45837;DHT22;31548;51.420;-0.040;2022-08-18T16:05:54;27.80;91.10
45837;DHT22;31548;51.420;-0.040;2022-08-18T16:08:24;27.30;91.50
45837;DHT22;31548;51.420;-0.040;2022-08-18T16:10:52;27.00;92.10
45837;DHT22;31548;51.420;-0.040;2022-08-18T16:13:22;27.30;92.10
45837;DHT22;31548;51.420;-0.040;2022-08-18T16:15:52;27.10;92.30
45837;DHT22;31548;51.420;-0.040;2022-08-18T16:18:20;27.10;92.80
45837;DHT22;31548;51.420;-0.040;2022-08-18T16:20:48;27.40;92.50
45837;DHT22;31548;51.420;-0.040;2022-08-18T16:23:18;28.30;92.00
45837;DHT22;31548;51.420;-0.040;2022-08-18T16:25:46;28.60;91.90
45837;DHT22;31548;51.420;-0.040;2022-08-18T16:28:13;29.20;90.80
45837;DHT22;31548;51.420;-0.040;2022-08-18T16:30:41;29.40;91.30
45837;DHT22;31548;51.420;-0.040;2022-08-18T16:33:08;29.60;90.60
45837;DHT22;31548;51.420;-0.040;2022-08-18T16:35:36;30.10;89.70
45837;DHT22;31548;51.420;-0.040;2022-08-18T16:38:06;29.10;91.70
45837;DHT22;31548;51.420;-0.040;2022-08-18T16:40:36;29.30;90.90
45837;DHT22;31548;51.420;-0.040;2022-08-18T16:43:03;29.20;91.80
45837;DHT22;31548;51.420;-0.040;2022-08-18T16:45:33;29.40;89.80
45837;DHT22;31548;51.420;-0.040;2022-08-18T16:48:02;30.10;89.20
45837;DHT22;31548;51.420;-0.040;2022-08-18T16:50:30;30.50;90.80
45837;DHT22;31548;51.420;-0.040;2022-08-18T16:52:57;30.60;87.50
45837;DHT22;31548;51.420;-0.040;2022-08-18T16:55:25;30.60;86.50
45837;DHT22;31548;51.420;-0.040;2022-08-18T16:57:52;30.80;86.50
45837;DHT22;31548;51.420;-0.040;2022-08-18T17:00:41;31.30;86.60
45837;DHT22;31548;51.420;-0.040;2022-08-18T17:03:27;31.30;85.90
45837;DHT22;31548;51.420;-0.040;2022-08-18T17:06:16;31.10;85.50
45837;DHT22;31548;51.420;-0.040;2022-08-18T17:08:45;30.90;85.50
45837;DHT22;31548;51.420;-0.040;2022-08-18T17:11:15;30.60;86.60
45837;DHT22;31548;51.420;-0.040;2022-08-18T17:13:44;30.30;87.30
45837;DHT22;31548;51.420;-0.040;2022-08-18T17:16:13;30.40;86.60
45837;DHT22;31548;51.420;-0.040;2022-08-18T17:18:41;30.90;86.70
45837;DHT22;31548;51.420;-0.040;2022-08-18T17:21:13;31.10;86.10
45837;DHT22;31548;51.420;-0.040;2022-08-18T17:23:41;31.20;84.80
45837;DHT22;31548;51.420;-0.040;2022-08-18T17:26:14;31.10;89.70
45837;DHT22;31548;51.420;-0.040;2022-08-18T17:28:48;30.70;84.90
45837;DHT22;31548;51.420;-0.040;2022-08-18T17:31:22;30.80;85.10
45837;DHT22;31548;51.420;-0.040;2022-08-18T17:33:53;30.90;84.70
45837;DHT22;31548;51.420;-0.040;2022-08-18T17:36:37;30.80;84.40
45837;DHT22;31548;51.420;-0.040;2022-08-18T17:39:24;30.00;90.10
45837;DHT22;31548;51.420;-0.040;2022-08-18T17:41:53;29.80;86.10
45837;DHT22;31548;51.420;-0.040;2022-08-18T17:44:41;29.40;86.70
45837;DHT22;31548;51.420;-0.040;2022-08-18T17:47:25;29.60;86.30
45837;DHT22;31548;51.420;-0.040;2022-08-18T17:49:56;30.20;85.80
45837;DHT22;31548;51.420;-0.040;2022-08-18T17:53:00;30.20;85.60
45837;DHT22;31548;51.420;-0.040;2022-08-18T17:55:44;30.10;84.70
45837;DHT22;31548;51.420;-0.040;2022-08-18T17:58:36;29.20;85.20
45837;DHT22;31548;51.420;-0.040;2022-08-18T18:01:08;28.70;86.70
45837;DHT22;31548;51.420;-0.040;2022-08-18T18:03:36;28.60;88.60
45837;DHT22;31548;51.420;-0.040;2022-08-18T18:06:17;28.30;88.10
45837;DHT22;31548;51.420;-0.040;2022-08-18T18:08:50;28.10;91.10
45837;DHT22;31548;51.420;-0.040;2022-08-18T18:11:25;27.90;91.70
45837;DHT22;31548;51.420;-0.040;2022-08-18T18:13:53;27.70;92.10
45837;DHT22;31548;51.420;-0.040;2022-08-18T18:16:29;27.50;92.60
45837;DHT22;31548;51.420;-0.040;2022-08-18T18:19:06;27.40;92.80